KIDA

Idaho Falls Regional Airport

Idaho Falls, Idaho, USA
METAR KIDA 151553Z 22009KT 10SM SCT100 M02/M07 A3016 RMK AO2 SLP260 T10221072
Observed Flight Rules
Dec-15 @ 15:53 UTC (14 minutes ago) Visual Flight Rules
Wind Visibility Clouds
220° at 9 knots 10 miles
  • Scattered at 10,000' AGL
Temperatures Readings
Current -2°C / 28°F
Dewpoint -7°C / 19°F
Humidity 69%
Altimeter 30.16" Hg
Pressure 1026 hPa
Elevation 1453
METAR KIDA 151553Z 22009KT 10SM SCT100 M02/M07 A3016 RMK AO2 SLP260 T10221072
Observed Flight Rules
Dec-15 @ 15:53 UTC
(14 minutes ago)
VFR
Wind Visibility
220° at 9 knots 10 miles
Clouds
  • Scattered at 10,000' AGL
Temperature Dewpoint
-2°C / 28°F -7°C / 19°F
Humidity Altimeter Pressure
69% 30.16" Hg 1026 hPa